Royalton, New York
Current Conditions -  °F | °C
As of 10:32 PM on Saturday 22 Nov 2014 (Local Time) from KBUF Reporting Station
Light Rain Light Rain  
Wind Chill: 33°   Ceiling: 2900
Heat Index: 41°   Visibility: 8mi
Dew Point: 37°   Wind: 16mph
Humidity: 86%   Direction: 210°SSW
Pressure: 29.98"   Gusts: NA
Location:  43.1953°N, 78.4825°W
Report Text: KBUF 230332Z 21014KT 8SM -RA OVC029 05/03 A2998 RMK AO2 P0002 T00500028
Loading
Personal Weather Stations






























Interactive Weather Map New forecast layout! Learn more

10-Day Weather Forecast

Advertisements
Track Severe Weather on mobile